Silvercreek, Colorado
Current Conditions -  °F | °C
As of 6:55 AM on Wednesday 28 Jan 2015 (Local Time) from K0CO Reporting Station
Scattered Clouds Scattered Clouds  
Wind Chill: -8°   Ceiling: Unl
Heat Index: 16°   Visibility: 10mi
Dew Point: 10°   Wind: 45mph
Humidity: 79%   Direction: 290°WNW
Pressure: 30.15"   Gusts: 63mph
Location:  40.0195°N, 105.865°W
Report Text: K0CO 281355Z AUTO 29039G55KT 10SM SCT011 M09/M12 A3015 RMK AO2
Loading
Personal Weather Stations






























Interactive Weather Map New forecast layout! Learn more

10-Day Weather Forecast

Advertisements
Track Severe Weather on mobile